Airfield :
LOGIN :

Register | Disclaimer

   EN    FR    IT 

 










Legend :    VFR   Marginal VFR   IFR   Intensive IFR   Very Intensive IFR
Visi :
Ceiling :
>= 8 km
>= 3000ft
5 to 8 km
1000 to 3000 ft
1500m to 5 km
500 to 1000 ft
800 to 1500m
200 to 500 ft
< 800m
< 200 ft
Symbols :   Thunderstorms  Fog  Heavy snow  Heavy precipitations  Wind > 20 kt
SIGMETs :     Misc.  Thunderstorms  Icing  Turbulence  Mountain Waves  Volcanic Ashes







- Airport Elevation : 463 ft
- IATA code : SZY
- AIRPORT CLOSED.


EPSY - Szczytno

CURRENT METAR :
  • 181900Z 36003KT CAVOK 20/12 Q1018

EXPIRED METARs :
  • 181830Z 36007KT CAVOK 21/12 Q1018
  • 181800Z 01011KT CAVOK 22/12 Q1018
  • 181730Z 36011KT CAVOK 22/13 Q1018
  • 181700Z 36012KT CAVOK 23/13 Q1018
  • 181630Z 34009KT 300V020 CAVOK 24/12 Q1017

TAF TAF EPSY
Valid from the 18 at 18:00 until the 19 at 03:00 UTC


181730Z 1818/1903 35008KT CAVOK
PROB30
TEMPO 1818/1821 -SHRA BKN033CB
BECMG 1821/1823 VRB03KT
PROB40
TEMPO 1823/1903 4000 BR
No reported NOTAMs for that airfield.



MET'MAP, your aeronautical weather chart ! - Copyright ORBIFLY December 2007 - Disclaimer

ORBIFLY MET'MAP TEAM :

Programming & Development : Alexandra Zaïnal
Concept & Development : Baudouin d'Aumeries
Co-Development & Prog : Marc-Olivier Méhu
Technical & hardware support : Manuel Goepfert

Contact : metmap@orbifly.com




SOURCES & CREDITS :

   NOAA